Kezdőlap
METAR-TAF:

METAR-TAF

Repülőterek :

St. Paul Downtown Airport (Holman Field)

Saint Paul, Minnesota, Amerikai Egyesült Államok

földrajzi szélesség: 44-55-49N, földrajzi hosszúság: 093-02-53W, magasság: 214 m

Jelenlegi meteorológiai megfigyelések

A jelentés 27 perccel ezelõtt készült, 17:53 UTC
Nyugati szél 15 kt széllökések: 28 kt
Hőmérséklet 11°C
Páratartalom 43%
Légköri nyomás 1017 hPa
Látótávolság: 16.1 km
Szórványos felhőzet 5000 lábon

METAR: KSTP 181753Z 28015G28KT 10SM SCT050 11/M01 A3004 RMK AO2 PK WND 30028/1751 SLP174 T01111011 10111 20083 58002

Idő: 13:20 (18:20 UTC)


TAF: hiányzik

Meteorológiai megfigyelések és előrejelzések több, mint 4000 repülőtéren (METAR és TAF jelentéseket).

A térképen piros és sárga pontok jelzik az elérhető meteorológiai állomásokat.

Mozgassa az egeret a pont fölött, hogy megjelenjen az állomás neve.

Azután kattintson az időjárási megfigyelések és előrejelzések megtekintéséhez.

A térkép megváltoztatása: kattintson a fekete keresztel jelölt zöld gombra ráközelítéshez, a vonallal jelölt zöld gombra távolításhoz, vagy a zöld nyilakra a szomszédos térképek eléréséhez.


METAR-TAF: